CFG1JC EDDL-LGKR
Flight info
| Callsign | CFG1JC |
|---|---|
| Flight time | N/A |
| Altitude | 33000 |
| Route | DODEN7Z DODEN Y853 BOMBI DCT DETEV DCT DINKU M867 XERUM DCT BAVAX DCT RADIZ DCT ALIVO DCT UNIPA DCT VAKSU DCT RODON DCT LIMJA N732 PITAS |
| Aircraft | A21N/M-SBDE3FGHIJ1J4J7LORVWXYZ/SB2D1G1 |
Departure
| Time | 2026-05-08 04:48 |
|---|---|
| Airport | Düsseldorf Airport (EDDL) |
Arrival
| Time | N/A |
|---|---|
| Airport | Corfu Ioannis Kapodistrias International Airport (LGKR) |
| Time | Latitude | Longitude | Altitude | Speed | Heading |
|---|---|---|---|---|---|
| 2026-05-08 04:09 | 51.27586 | 6.75651 | 136 ft | 0 kts | 63° |
| 2026-05-08 04:35 | 51.27583 | 6.75644 | 136 ft | 4 kts | 63° |
| 2026-05-08 04:35 | 51.27572 | 6.75609 | 135 ft | 3 kts | 63° |
| 2026-05-08 04:35 | 51.27558 | 6.75581 | 135 ft | 4 kts | 18° |
| 2026-05-08 04:36 | 51.27535 | 6.75584 | 135 ft | 4 kts | 335° |
| 2026-05-08 04:36 | 51.27524 | 6.75592 | 135 ft | 1 kts | 333° |
| 2026-05-08 04:36 | 51.27524 | 6.75593 | 135 ft | 0 kts | 333° |
| 2026-05-08 04:42 | 51.27526 | 6.75591 | 135 ft | 1 kts | 333° |
| 2026-05-08 04:42 | 51.27537 | 6.75583 | 135 ft | 1 kts | 332° |
| 2026-05-08 04:43 | 51.27560 | 6.75564 | 135 ft | 6 kts | 334° |
| 2026-05-08 04:43 | 51.27602 | 6.75532 | 134 ft | 7 kts | 335° |
| 2026-05-08 04:43 | 51.27652 | 6.75499 | 133 ft | 8 kts | 337° |
| 2026-05-08 04:43 | 51.27708 | 6.75456 | 132 ft | 9 kts | 333° |
| 2026-05-08 04:44 | 51.27759 | 6.75415 | 127 ft | 6 kts | 333° |
| 2026-05-08 04:44 | 51.27799 | 6.75382 | 131 ft | 7 kts | 332° |
| 2026-05-08 04:44 | 51.27846 | 6.75343 | 127 ft | 6 kts | 334° |
| 2026-05-08 04:44 | 51.27876 | 6.75320 | 129 ft | 4 kts | 334° |
| 2026-05-08 04:45 | 51.27881 | 6.75316 | 129 ft | 0 kts | 333° |
| 2026-05-08 04:45 | 51.27882 | 6.75316 | 130 ft | 1 kts | 333° |
| 2026-05-08 04:46 | 51.27900 | 6.75301 | 129 ft | 5 kts | 332° |
| 2026-05-08 04:46 | 51.27938 | 6.75269 | 128 ft | 7 kts | 332° |
| 2026-05-08 04:46 | 51.27960 | 6.75253 | 123 ft | 2 kts | 341° |
| 2026-05-08 04:46 | 51.27992 | 6.75267 | 123 ft | 6 kts | 40° |
| 2026-05-08 04:47 | 51.28010 | 6.75302 | 125 ft | 0 kts | 53° |
| 2026-05-08 04:47 | 51.28010 | 6.75303 | 125 ft | 3 kts | 53° |
| 2026-05-08 04:47 | 51.28176 | 6.75650 | 134 ft | 74 kts | 53° |
| 2026-05-08 04:47 | 51.28618 | 6.76577 | 136 ft | 138 kts | 53° |
| 2026-05-08 04:48 | 51.29297 | 6.78002 | 391 ft | 170 kts | 53° |
| 2026-05-08 04:48 | 51.29989 | 6.79509 | 1306 ft | 170 kts | 55° |
| 2026-05-08 04:48 | 51.30687 | 6.81067 | 1862 ft | 179 kts | 55° |
| 2026-05-08 04:48 | 51.31433 | 6.82760 | 2267 ft | 195 kts | 55° |
| 2026-05-08 04:49 | 51.32239 | 6.84552 | 2845 ft | 203 kts | 53° |
| 2026-05-08 04:49 | 51.33150 | 6.86449 | 3151 ft | 228 kts | 51° |
| 2026-05-08 04:49 | 51.34157 | 6.88569 | 3532 ft | 250 kts | 53° |
| 2026-05-08 04:49 | 51.35042 | 6.91035 | 4147 ft | 261 kts | 71° |
| 2026-05-08 04:50 | 51.35237 | 6.93939 | 4928 ft | 267 kts | 95° |
| 2026-05-08 04:50 | 51.34955 | 6.96892 | 5731 ft | 270 kts | 99° |
| 2026-05-08 04:50 | 51.34620 | 6.99872 | 6533 ft | 274 kts | 99° |
| 2026-05-08 04:50 | 51.34290 | 7.02891 | 7277 ft | 277 kts | 99° |
| 2026-05-08 04:51 | 51.33966 | 7.05946 | 8040 ft | 280 kts | 99° |
| 2026-05-08 04:51 | 51.33643 | 7.09041 | 8810 ft | 283 kts | 99° |
| 2026-05-08 04:51 | 51.33322 | 7.12164 | 9592 ft | 286 kts | 100° |
| 2026-05-08 04:51 | 51.32969 | 7.15309 | 10297 ft | 290 kts | 104° |
| 2026-05-08 04:52 | 51.32204 | 7.18372 | 10607 ft | 306 kts | 123° |
| 2026-05-08 04:52 | 51.30793 | 7.21031 | 10873 ft | 323 kts | 136° |
| 2026-05-08 04:52 | 51.29155 | 7.23564 | 11129 ft | 341 kts | 137° |
| 2026-05-08 04:52 | 51.27392 | 7.26257 | 11396 ft | 358 kts | 137° |
| 2026-05-08 04:53 | 51.25584 | 7.29060 | 11923 ft | 366 kts | 136° |
| 2026-05-08 04:53 | 51.23758 | 7.31919 | 12570 ft | 370 kts | 136° |
| 2026-05-08 04:53 | 51.21913 | 7.34817 | 13227 ft | 375 kts | 136° |
| 2026-05-08 04:53 | 51.20046 | 7.37756 | 13873 ft | 379 kts | 136° |
| 2026-05-08 04:54 | 51.18165 | 7.40721 | 14454 ft | 383 kts | 136° |
| 2026-05-08 04:54 | 51.16262 | 7.43720 | 15048 ft | 387 kts | 136° |
| 2026-05-08 04:54 | 51.14331 | 7.46738 | 15637 ft | 390 kts | 137° |
| 2026-05-08 04:54 | 51.12371 | 7.49735 | 16224 ft | 393 kts | 137° |
| 2026-05-08 04:55 | 51.10384 | 7.52762 | 16815 ft | 396 kts | 137° |
| 2026-05-08 04:55 | 51.08387 | 7.55806 | 17397 ft | 400 kts | 137° |
| 2026-05-08 04:55 | 51.06373 | 7.58876 | 17989 ft | 403 kts | 137° |
| 2026-05-08 04:55 | 51.04338 | 7.61974 | 18548 ft | 406 kts | 137° |
| 2026-05-08 04:56 | 51.02287 | 7.65092 | 19046 ft | 409 kts | 138° |
| 2026-05-08 04:56 | 51.00221 | 7.68222 | 19551 ft | 412 kts | 137° |
| 2026-05-08 04:56 | 50.98143 | 7.71378 | 20043 ft | 415 kts | 138° |
| 2026-05-08 04:56 | 50.95934 | 7.74332 | 20512 ft | 416 kts | 147° |
| 2026-05-08 04:57 | 50.93495 | 7.76828 | 20996 ft | 419 kts | 150° |
| 2026-05-08 04:57 | 50.91004 | 7.79260 | 21465 ft | 421 kts | 150° |
| 2026-05-08 04:57 | 50.88496 | 7.81699 | 21923 ft | 424 kts | 150° |
| 2026-05-08 04:57 | 50.85973 | 7.84168 | 22372 ft | 427 kts | 150° |
| 2026-05-08 04:58 | 50.83437 | 7.86655 | 22814 ft | 430 kts | 150° |
| 2026-05-08 04:58 | 50.80911 | 7.89132 | 23244 ft | 433 kts | 150° |
| 2026-05-08 04:58 | 50.78345 | 7.91646 | 23675 ft | 436 kts | 150° |
| 2026-05-08 04:58 | 50.75755 | 7.94180 | 24042 ft | 439 kts | 150° |
| 2026-05-08 04:59 | 50.73156 | 7.96721 | 24413 ft | 441 kts | 150° |
| 2026-05-08 04:59 | 50.70540 | 7.99272 | 24770 ft | 443 kts | 150° |
| 2026-05-08 04:59 | 50.67906 | 8.01842 | 25122 ft | 446 kts | 150° |
| 2026-05-08 04:59 | 50.65262 | 8.04418 | 25477 ft | 448 kts | 150° |
| 2026-05-08 05:00 | 50.62597 | 8.07008 | 25825 ft | 451 kts | 150° |
| 2026-05-08 05:00 | 50.59963 | 8.09713 | 26238 ft | 454 kts | 145° |
| 2026-05-08 05:00 | 50.57491 | 8.12858 | 26582 ft | 458 kts | 142° |
| 2026-05-08 05:00 | 50.55044 | 8.16079 | 26927 ft | 460 kts | 142° |
| 2026-05-08 05:01 | 50.52584 | 8.19322 | 27264 ft | 462 kts | 142° |
| 2026-05-08 05:01 | 50.50141 | 8.22527 | 27582 ft | 464 kts | 142° |
| 2026-05-08 05:01 | 50.47651 | 8.25784 | 27928 ft | 466 kts | 142° |
| 2026-05-08 05:01 | 50.45167 | 8.29030 | 28345 ft | 465 kts | 142° |
| 2026-05-08 05:02 | 50.42680 | 8.32279 | 28778 ft | 464 kts | 142° |
| 2026-05-08 05:02 | 50.40203 | 8.35507 | 29176 ft | 464 kts | 142° |
| 2026-05-08 05:02 | 50.37712 | 8.38741 | 29464 ft | 465 kts | 142° |
| 2026-05-08 05:02 | 50.35215 | 8.41981 | 29793 ft | 466 kts | 142° |
| 2026-05-08 05:03 | 50.32714 | 8.45226 | 30164 ft | 465 kts | 142° |
| 2026-05-08 05:03 | 50.30225 | 8.48448 | 30491 ft | 464 kts | 142° |
| 2026-05-08 05:03 | 50.27736 | 8.51662 | 30772 ft | 464 kts | 142° |
| 2026-05-08 05:03 | 50.25246 | 8.54867 | 31053 ft | 464 kts | 142° |
| 2026-05-08 05:04 | 50.23598 | 8.56996 | 31234 ft | 464 kts | 142° |
| 2026-05-08 05:04 | 50.21112 | 8.60207 | 31505 ft | 463 kts | 143° |
| 2026-05-08 05:04 | 50.18629 | 8.63403 | 31766 ft | 463 kts | 143° |
| 2026-05-08 05:04 | 50.16146 | 8.66590 | 32026 ft | 463 kts | 143° |
| 2026-05-08 05:05 | 50.13658 | 8.69784 | 32290 ft | 462 kts | 143° |
| 2026-05-08 05:05 | 50.11176 | 8.72967 | 32536 ft | 462 kts | 143° |
| 2026-05-08 05:05 | 50.08692 | 8.76148 | 32768 ft | 462 kts | 143° |
| 2026-05-08 05:05 | 50.06346 | 8.79566 | 32982 ft | 465 kts | 134° |
| 2026-05-08 05:06 | 50.04459 | 8.83664 | 33167 ft | 469 kts | 121° |
| 2026-05-08 05:06 | 50.02989 | 8.88200 | 33381 ft | 470 kts | 117° |
| 2026-05-08 05:06 | 50.01601 | 8.92798 | 33585 ft | 470 kts | 117° |
| 2026-05-08 05:06 | 50.00211 | 8.97389 | 33796 ft | 470 kts | 117° |
| 2026-05-08 05:07 | 49.98802 | 9.01970 | 33990 ft | 469 kts | 117° |
| 2026-05-08 05:07 | 49.97379 | 9.06532 | 34175 ft | 469 kts | 117° |
| 2026-05-08 05:07 | 49.95952 | 9.11087 | 34329 ft | 469 kts | 118° |
| 2026-05-08 05:07 | 49.94521 | 9.15638 | 34459 ft | 470 kts | 117° |
| 2026-05-08 05:08 | 49.93087 | 9.20202 | 34588 ft | 470 kts | 117° |
| 2026-05-08 05:08 | 49.91653 | 9.24765 | 34737 ft | 470 kts | 117° |
| 2026-05-08 05:08 | 49.90217 | 9.29326 | 34895 ft | 470 kts | 118° |
| 2026-05-08 05:08 | 49.88798 | 9.33818 | 35029 ft | 470 kts | 118° |
| 2026-05-08 05:09 | 49.87358 | 9.38367 | 35142 ft | 471 kts | 118° |
| 2026-05-08 05:09 | 49.85913 | 9.42918 | 35147 ft | 470 kts | 118° |
| 2026-05-08 05:09 | 49.82974 | 9.51941 | 35107 ft | 468 kts | 122° |
| 2026-05-08 05:10 | 49.81077 | 9.55996 | 35094 ft | 465 kts | 135° |
| 2026-05-08 05:10 | 49.76413 | 9.62907 | 35096 ft | 464 kts | 140° |
| 2026-05-08 05:11 | 49.71668 | 9.69667 | 35102 ft | 464 kts | 140° |
| 2026-05-08 05:11 | 49.66952 | 9.76477 | 35094 ft | 464 kts | 139° |
| 2026-05-08 05:12 | 49.62245 | 9.83291 | 35089 ft | 464 kts | 140° |
| 2026-05-08 05:12 | 49.57527 | 9.90078 | 35088 ft | 464 kts | 140° |
| 2026-05-08 05:13 | 49.52797 | 9.96855 | 35075 ft | 465 kts | 140° |
| 2026-05-08 05:13 | 49.48076 | 10.03594 | 35078 ft | 465 kts | 140° |
| 2026-05-08 05:14 | 49.43334 | 10.10365 | 35078 ft | 465 kts | 140° |
| 2026-05-08 05:14 | 49.38581 | 10.17113 | 35083 ft | 465 kts | 140° |
| 2026-05-08 05:15 | 49.33826 | 10.23864 | 35099 ft | 465 kts | 140° |
| 2026-05-08 05:15 | 49.29065 | 10.30596 | 35099 ft | 465 kts | 140° |
| 2026-05-08 05:16 | 49.24271 | 10.37292 | 35116 ft | 466 kts | 143° |
| 2026-05-08 05:16 | 49.18894 | 10.42661 | 35133 ft | 461 kts | 153° |
| 2026-05-08 05:17 | 49.13363 | 10.47631 | 35133 ft | 461 kts | 153° |
| 2026-05-08 05:17 | 49.07850 | 10.52640 | 35147 ft | 461 kts | 153° |
| 2026-05-08 05:18 | 49.02343 | 10.57644 | 35125 ft | 461 kts | 153° |
| 2026-05-08 05:18 | 48.96864 | 10.62592 | 35142 ft | 461 kts | 153° |
| 2026-05-08 05:19 | 48.91344 | 10.67570 | 35135 ft | 461 kts | 153° |
| 2026-05-08 05:19 | 48.85823 | 10.72538 | 35136 ft | 461 kts | 153° |
| 2026-05-08 05:20 | 48.80466 | 10.77944 | 35111 ft | 467 kts | 141° |
| 2026-05-08 05:20 | 48.76022 | 10.85182 | 35103 ft | 469 kts | 135° |
| 2026-05-08 05:21 | 48.71687 | 10.92567 | 35091 ft | 468 kts | 135° |
| 2026-05-08 05:21 | 48.67318 | 10.99897 | 35093 ft | 469 kts | 135° |
| 2026-05-08 05:22 | 48.62952 | 11.07174 | 35081 ft | 469 kts | 136° |
| 2026-05-08 05:22 | 48.58553 | 11.14473 | 35083 ft | 469 kts | 135° |
| 2026-05-08 05:23 | 48.54160 | 11.21767 | 35080 ft | 469 kts | 136° |
| 2026-05-08 05:23 | 48.49777 | 11.29018 | 35084 ft | 466 kts | 136° |
| 2026-05-08 05:24 | 48.45397 | 11.36238 | 35081 ft | 467 kts | 136° |
| 2026-05-08 05:24 | 48.41007 | 11.43445 | 35084 ft | 467 kts | 136° |
| 2026-05-08 05:25 | 48.36618 | 11.50651 | 35083 ft | 467 kts | 136° |
| 2026-05-08 05:25 | 48.32222 | 11.57851 | 35082 ft | 467 kts | 136° |
| 2026-05-08 05:26 | 48.27825 | 11.65021 | 35079 ft | 467 kts | 136° |
| 2026-05-08 05:26 | 48.23217 | 11.71781 | 35084 ft | 466 kts | 141° |
| 2026-05-08 05:27 | 48.18430 | 11.78336 | 35103 ft | 466 kts | 141° |
| 2026-05-08 05:27 | 48.13647 | 11.84896 | 35098 ft | 466 kts | 141° |
| 2026-05-08 05:28 | 48.08865 | 11.91442 | 35094 ft | 466 kts | 141° |
| 2026-05-08 05:28 | 48.04083 | 11.97976 | 35089 ft | 466 kts | 141° |
| 2026-05-08 05:29 | 47.99288 | 12.04496 | 35080 ft | 465 kts | 141° |
| 2026-05-08 05:29 | 47.94508 | 12.10986 | 35085 ft | 464 kts | 141° |
| 2026-05-08 05:30 | 47.89730 | 12.17460 | 35084 ft | 464 kts | 142° |
| 2026-05-08 05:30 | 47.84975 | 12.23873 | 35086 ft | 464 kts | 142° |
| 2026-05-08 05:31 | 47.80193 | 12.30318 | 35087 ft | 464 kts | 142° |
| 2026-05-08 05:31 | 47.75401 | 12.36764 | 35083 ft | 463 kts | 142° |
| 2026-05-08 05:32 | 47.70628 | 12.43164 | 35085 ft | 462 kts | 142° |
| 2026-05-08 05:32 | 47.65854 | 12.49538 | 35087 ft | 462 kts | 142° |
| 2026-05-08 05:33 | 47.60966 | 12.55684 | 35087 ft | 459 kts | 147° |
| 2026-05-08 05:33 | 47.55838 | 12.61313 | 35085 ft | 458 kts | 148° |
| 2026-05-08 05:34 | 47.50694 | 12.66917 | 35066 ft | 459 kts | 148° |
| 2026-05-08 05:34 | 47.45557 | 12.72529 | 35079 ft | 459 kts | 148° |
| 2026-05-08 05:35 | 47.40452 | 12.78088 | 35078 ft | 459 kts | 148° |
| 2026-05-08 05:35 | 47.35319 | 12.83667 | 35080 ft | 459 kts | 148° |
| 2026-05-08 05:36 | 47.30168 | 12.89227 | 35072 ft | 459 kts | 148° |
| 2026-05-08 05:36 | 47.25019 | 12.94784 | 35068 ft | 459 kts | 149° |
| 2026-05-08 05:37 | 47.19849 | 13.00352 | 35080 ft | 459 kts | 149° |
| 2026-05-08 05:37 | 47.14690 | 13.05904 | 35077 ft | 459 kts | 149° |
| 2026-05-08 05:38 | 47.09527 | 13.11454 | 35090 ft | 460 kts | 149° |
| 2026-05-08 05:38 | 47.04373 | 13.16991 | 35085 ft | 460 kts | 149° |
| 2026-05-08 05:39 | 46.99240 | 13.22463 | 35091 ft | 459 kts | 149° |
| 2026-05-08 05:39 | 46.94054 | 13.27990 | 35091 ft | 461 kts | 149° |
| 2026-05-08 05:40 | 46.88863 | 13.33503 | 35091 ft | 461 kts | 149° |
| 2026-05-08 05:40 | 46.83663 | 13.39010 | 35094 ft | 461 kts | 150° |
| 2026-05-08 05:41 | 46.78460 | 13.44513 | 35075 ft | 461 kts | 150° |
| 2026-05-08 05:41 | 46.73260 | 13.49998 | 35093 ft | 461 kts | 150° |
| 2026-05-08 05:42 | 46.68044 | 13.55484 | 35090 ft | 463 kts | 150° |
| 2026-05-08 05:42 | 46.62852 | 13.60928 | 35097 ft | 463 kts | 150° |
| 2026-05-08 05:43 | 46.57626 | 13.66406 | 35096 ft | 463 kts | 150° |
| 2026-05-08 05:43 | 46.52399 | 13.71872 | 35089 ft | 462 kts | 151° |
| 2026-05-08 05:44 | 46.47170 | 13.77315 | 35090 ft | 462 kts | 151° |
| 2026-05-08 05:44 | 46.41944 | 13.82745 | 35092 ft | 463 kts | 151° |
| 2026-05-08 05:45 | 46.36686 | 13.88194 | 35092 ft | 464 kts | 151° |
| 2026-05-08 05:45 | 46.31443 | 13.93620 | 35087 ft | 464 kts | 151° |
| 2026-05-08 05:46 | 46.26185 | 13.99037 | 35089 ft | 463 kts | 151° |
| 2026-05-08 05:46 | 46.20971 | 14.04411 | 35091 ft | 463 kts | 151° |
| 2026-05-08 05:47 | 46.15720 | 14.09800 | 35085 ft | 463 kts | 151° |
| 2026-05-08 05:47 | 46.10460 | 14.15194 | 35098 ft | 464 kts | 151° |
| 2026-05-08 05:48 | 46.05199 | 14.20560 | 35099 ft | 462 kts | 151° |
| 2026-05-08 05:48 | 45.99964 | 14.25904 | 35095 ft | 461 kts | 151° |
| 2026-05-08 05:49 | 45.94725 | 14.31234 | 35106 ft | 461 kts | 151° |
| 2026-05-08 05:49 | 45.89487 | 14.36552 | 35093 ft | 461 kts | 151° |
| 2026-05-08 05:50 | 45.84265 | 14.41837 | 35093 ft | 462 kts | 151° |
| 2026-05-08 05:50 | 45.79004 | 14.47152 | 35091 ft | 463 kts | 151° |
| 2026-05-08 05:51 | 45.73737 | 14.52460 | 35091 ft | 462 kts | 151° |
| 2026-05-08 05:51 | 45.68473 | 14.57749 | 35086 ft | 462 kts | 151° |
| 2026-05-08 05:52 | 45.64094 | 14.62127 | 35087 ft | 462 kts | 152° |
| 2026-05-08 05:52 | 45.58824 | 14.67393 | 35075 ft | 460 kts | 151° |
| 2026-05-08 05:53 | 45.53589 | 14.72628 | 35084 ft | 460 kts | 151° |
| 2026-05-08 05:53 | 45.48575 | 14.78395 | 35082 ft | 464 kts | 146° |
| 2026-05-08 05:54 | 45.43646 | 14.84345 | 35073 ft | 464 kts | 146° |
| 2026-05-08 05:54 | 45.38717 | 14.90277 | 35056 ft | 465 kts | 146° |
| 2026-05-08 05:55 | 45.33793 | 14.96187 | 35071 ft | 462 kts | 145° |
| 2026-05-08 05:55 | 45.28909 | 15.02039 | 35084 ft | 462 kts | 146° |
| 2026-05-08 05:56 | 45.23989 | 15.07915 | 35079 ft | 462 kts | 146° |
| 2026-05-08 05:56 | 45.19069 | 15.13772 | 35083 ft | 462 kts | 146° |
| 2026-05-08 05:57 | 45.14146 | 15.19633 | 35063 ft | 461 kts | 145° |
| 2026-05-08 05:57 | 45.09233 | 15.25459 | 35079 ft | 460 kts | 145° |
| 2026-05-08 05:58 | 45.04316 | 15.31280 | 35078 ft | 460 kts | 145° |
| 2026-05-08 05:58 | 44.99394 | 15.37074 | 35081 ft | 460 kts | 145° |
| 2026-05-08 05:59 | 44.94505 | 15.42833 | 35078 ft | 460 kts | 145° |
| 2026-05-08 05:59 | 44.89575 | 15.48628 | 35071 ft | 461 kts | 145° |
| 2026-05-08 06:00 | 44.84633 | 15.54419 | 35080 ft | 461 kts | 145° |
| 2026-05-08 06:00 | 44.79696 | 15.60196 | 35083 ft | 461 kts | 145° |
| 2026-05-08 06:01 | 44.74757 | 15.65955 | 35076 ft | 461 kts | 145° |
| 2026-05-08 06:01 | 44.69816 | 15.71697 | 35061 ft | 461 kts | 145° |
| 2026-05-08 06:02 | 44.64909 | 15.77388 | 35069 ft | 460 kts | 146° |
| 2026-05-08 06:02 | 44.59980 | 15.83108 | 35079 ft | 460 kts | 146° |
| 2026-05-08 06:03 | 44.55044 | 15.88820 | 35069 ft | 460 kts | 146° |
| 2026-05-08 06:03 | 44.50105 | 15.94513 | 35074 ft | 460 kts | 146° |
| 2026-05-08 06:04 | 44.45164 | 16.00200 | 35063 ft | 460 kts | 146° |
| 2026-05-08 06:04 | 44.40236 | 16.05858 | 35059 ft | 456 kts | 146° |
| 2026-05-08 06:05 | 44.35321 | 16.11475 | 35060 ft | 456 kts | 146° |
| 2026-05-08 06:05 | 44.30410 | 16.17096 | 35059 ft | 456 kts | 146° |
| 2026-05-08 06:06 | 44.25491 | 16.22706 | 35045 ft | 456 kts | 146° |
| 2026-05-08 06:06 | 44.20562 | 16.28305 | 35039 ft | 457 kts | 146° |
| 2026-05-08 06:07 | 44.15650 | 16.33886 | 35048 ft | 455 kts | 146° |
| 2026-05-08 06:07 | 44.10784 | 16.39407 | 35049 ft | 454 kts | 146° |
| 2026-05-08 06:08 | 44.05874 | 16.44950 | 35057 ft | 455 kts | 146° |
| 2026-05-08 06:08 | 44.00912 | 16.50408 | 35049 ft | 454 kts | 147° |
| 2026-05-08 06:09 | 43.95889 | 16.55719 | 35048 ft | 453 kts | 147° |
| 2026-05-08 06:09 | 43.90864 | 16.61013 | 35053 ft | 453 kts | 147° |
| 2026-05-08 06:10 | 43.85873 | 16.66255 | 35055 ft | 453 kts | 147° |
| 2026-05-08 06:10 | 43.80815 | 16.71559 | 35050 ft | 453 kts | 147° |
| 2026-05-08 06:11 | 43.75826 | 16.76774 | 35049 ft | 452 kts | 147° |
| 2026-05-08 06:11 | 43.70803 | 16.82014 | 35042 ft | 452 kts | 147° |
| 2026-05-08 06:12 | 43.65786 | 16.87246 | 35046 ft | 452 kts | 147° |
| 2026-05-08 06:12 | 43.60768 | 16.92478 | 35049 ft | 452 kts | 147° |
| 2026-05-08 06:13 | 43.55740 | 16.97676 | 35052 ft | 451 kts | 147° |
| 2026-05-08 06:13 | 43.50718 | 17.02872 | 35056 ft | 451 kts | 147° |
| 2026-05-08 06:14 | 43.45692 | 17.08070 | 35045 ft | 452 kts | 147° |
| 2026-05-08 06:14 | 43.40685 | 17.13251 | 35045 ft | 453 kts | 147° |
| 2026-05-08 06:15 | 43.35648 | 17.18445 | 35049 ft | 453 kts | 147° |
| 2026-05-08 06:15 | 43.30603 | 17.23617 | 35048 ft | 453 kts | 147° |
| 2026-05-08 06:16 | 43.25557 | 17.28790 | 35039 ft | 452 kts | 147° |
| 2026-05-08 06:16 | 43.20520 | 17.33940 | 35045 ft | 452 kts | 147° |
| 2026-05-08 06:17 | 43.12980 | 17.41629 | 35038 ft | 451 kts | 148° |
| 2026-05-08 06:17 | 43.07936 | 17.46742 | 35040 ft | 451 kts | 148° |
| 2026-05-08 06:18 | 43.02914 | 17.51837 | 35040 ft | 447 kts | 148° |
| 2026-05-08 06:18 | 42.97923 | 17.56893 | 35035 ft | 446 kts | 148° |
| 2026-05-08 06:19 | 42.92931 | 17.61933 | 35031 ft | 446 kts | 148° |
| 2026-05-08 06:19 | 42.87939 | 17.66968 | 35031 ft | 446 kts | 148° |
| 2026-05-08 06:20 | 42.82943 | 17.71987 | 35013 ft | 446 kts | 148° |
| 2026-05-08 06:20 | 42.77967 | 17.76989 | 35018 ft | 443 kts | 148° |
| 2026-05-08 06:21 | 42.73025 | 17.81970 | 35021 ft | 443 kts | 148° |
| 2026-05-08 06:21 | 42.68066 | 17.86941 | 35020 ft | 442 kts | 148° |
| 2026-05-08 06:22 | 42.63139 | 17.91862 | 35021 ft | 442 kts | 148° |
| 2026-05-08 06:22 | 42.58176 | 17.96810 | 35011 ft | 444 kts | 147° |
| 2026-05-08 06:23 | 42.53186 | 18.01766 | 35018 ft | 444 kts | 148° |
| 2026-05-08 06:23 | 42.48201 | 18.06717 | 35020 ft | 445 kts | 147° |
| 2026-05-08 06:24 | 42.43209 | 18.11664 | 35019 ft | 445 kts | 147° |
| 2026-05-08 06:24 | 42.38207 | 18.16610 | 35017 ft | 445 kts | 148° |
| 2026-05-08 06:25 | 42.33204 | 18.21543 | 35008 ft | 445 kts | 147° |
| 2026-05-08 06:25 | 42.28194 | 18.26468 | 35006 ft | 446 kts | 147° |
| 2026-05-08 06:26 | 42.23211 | 18.31375 | 34997 ft | 446 kts | 147° |
| 2026-05-08 06:26 | 42.18189 | 18.36295 | 34994 ft | 446 kts | 147° |
| 2026-05-08 06:27 | 42.13173 | 18.41203 | 34994 ft | 446 kts | 148° |
| 2026-05-08 06:27 | 42.08165 | 18.46094 | 34999 ft | 443 kts | 148° |
| 2026-05-08 06:28 | 42.03168 | 18.50972 | 35003 ft | 443 kts | 148° |
| 2026-05-08 06:28 | 41.98266 | 18.55937 | 35014 ft | 444 kts | 146° |
| 2026-05-08 06:29 | 41.93385 | 18.61032 | 35013 ft | 444 kts | 146° |
| 2026-05-08 06:29 | 41.88494 | 18.66119 | 35001 ft | 444 kts | 146° |
| 2026-05-08 06:30 | 41.83611 | 18.71166 | 35017 ft | 442 kts | 146° |
| 2026-05-08 06:30 | 41.78739 | 18.76200 | 35018 ft | 442 kts | 146° |
| 2026-05-08 06:31 | 41.73868 | 18.81230 | 35012 ft | 441 kts | 146° |
| 2026-05-08 06:31 | 41.69001 | 18.86232 | 35025 ft | 441 kts | 146° |
| 2026-05-08 06:32 | 41.64135 | 18.91237 | 35018 ft | 441 kts | 146° |
| 2026-05-08 06:32 | 41.59301 | 18.96191 | 35026 ft | 441 kts | 146° |
| 2026-05-08 06:33 | 41.54428 | 19.01181 | 35027 ft | 441 kts | 146° |
| 2026-05-08 06:33 | 41.49563 | 19.06155 | 35030 ft | 441 kts | 146° |
| 2026-05-08 06:34 | 41.44482 | 19.10625 | 35023 ft | 435 kts | 159° |
| 2026-05-08 06:34 | 41.38846 | 19.13457 | 34982 ft | 430 kts | 163° |
| 2026-05-08 06:35 | 41.36032 | 19.14801 | 34364 ft | 430 kts | 162° |
| 2026-05-08 06:35 | 41.33211 | 19.16158 | 33793 ft | 433 kts | 162° |
| 2026-05-08 06:35 | 41.30374 | 19.17537 | 33234 ft | 435 kts | 162° |
| 2026-05-08 06:35 | 41.27523 | 19.18919 | 32701 ft | 438 kts | 162° |
| 2026-05-08 06:36 | 41.24652 | 19.20309 | 32187 ft | 440 kts | 162° |
| 2026-05-08 06:36 | 41.21769 | 19.21701 | 31682 ft | 442 kts | 162° |
| 2026-05-08 06:36 | 41.18908 | 19.23092 | 31190 ft | 444 kts | 162° |
| 2026-05-08 06:36 | 41.15997 | 19.24511 | 30702 ft | 447 kts | 161° |
| 2026-05-08 06:37 | 41.13074 | 19.25942 | 30219 ft | 449 kts | 161° |
| 2026-05-08 06:37 | 41.10145 | 19.27373 | 29683 ft | 448 kts | 162° |
| 2026-05-08 06:37 | 41.07224 | 19.28791 | 29124 ft | 445 kts | 162° |
| 2026-05-08 06:37 | 41.04334 | 19.30192 | 28593 ft | 441 kts | 162° |
| 2026-05-08 06:38 | 41.01467 | 19.31573 | 28052 ft | 437 kts | 162° |
| 2026-05-08 06:38 | 40.98625 | 19.32944 | 27530 ft | 433 kts | 162° |
| 2026-05-08 06:38 | 40.95810 | 19.34305 | 27020 ft | 429 kts | 162° |
| 2026-05-08 06:38 | 40.93015 | 19.35652 | 26520 ft | 426 kts | 162° |
| 2026-05-08 06:39 | 40.90241 | 19.36989 | 26048 ft | 423 kts | 162° |
| 2026-05-08 06:39 | 40.87487 | 19.38317 | 25720 ft | 421 kts | 163° |
| 2026-05-08 06:39 | 40.84742 | 19.39635 | 25448 ft | 419 kts | 163° |
| 2026-05-08 06:39 | 40.82001 | 19.40948 | 25198 ft | 418 kts | 163° |
| 2026-05-08 06:40 | 40.79274 | 19.42251 | 24965 ft | 416 kts | 163° |
| 2026-05-08 06:40 | 40.76552 | 19.43558 | 24725 ft | 415 kts | 163° |
| 2026-05-08 06:40 | 40.73845 | 19.44854 | 24501 ft | 413 kts | 163° |
| 2026-05-08 06:40 | 40.71146 | 19.46144 | 24246 ft | 414 kts | 163° |
| 2026-05-08 06:41 | 40.68477 | 19.47418 | 24026 ft | 412 kts | 163° |
| 2026-05-08 06:41 | 40.65789 | 19.48707 | 23794 ft | 411 kts | 163° |
| 2026-05-08 06:41 | 40.63108 | 19.49993 | 23564 ft | 409 kts | 163° |
| 2026-05-08 06:41 | 40.60436 | 19.51271 | 23296 ft | 408 kts | 163° |
| 2026-05-08 06:42 | 40.57771 | 19.52541 | 23022 ft | 405 kts | 163° |
| 2026-05-08 06:42 | 40.55129 | 19.53799 | 22759 ft | 404 kts | 163° |
| 2026-05-08 06:42 | 40.52494 | 19.55053 | 22495 ft | 402 kts | 164° |
| 2026-05-08 06:42 | 40.49871 | 19.56298 | 22228 ft | 399 kts | 164° |
| 2026-05-08 06:43 | 40.47268 | 19.57530 | 21877 ft | 396 kts | 164° |
| 2026-05-08 06:43 | 40.44685 | 19.58755 | 21414 ft | 393 kts | 164° |
| 2026-05-08 06:43 | 40.42990 | 19.59556 | 21094 ft | 390 kts | 164° |
| 2026-05-08 06:43 | 40.40438 | 19.60761 | 20600 ft | 387 kts | 164° |
| 2026-05-08 06:44 | 40.37914 | 19.61956 | 20116 ft | 384 kts | 164° |
| 2026-05-08 06:44 | 40.35408 | 19.63143 | 19627 ft | 381 kts | 164° |
| 2026-05-08 06:44 | 40.32921 | 19.64315 | 19153 ft | 378 kts | 165° |
| 2026-05-08 06:44 | 40.30455 | 19.65472 | 18690 ft | 375 kts | 165° |
| 2026-05-08 06:45 | 40.28007 | 19.66619 | 18219 ft | 372 kts | 165° |
| 2026-05-08 06:45 | 40.25579 | 19.67759 | 17680 ft | 369 kts | 165° |
| 2026-05-08 06:45 | 40.23169 | 19.68889 | 17155 ft | 367 kts | 165° |
| 2026-05-08 06:45 | 40.20777 | 19.70015 | 16645 ft | 364 kts | 165° |
| 2026-05-08 06:46 | 40.18406 | 19.71129 | 16128 ft | 360 kts | 165° |
| 2026-05-08 06:46 | 40.16051 | 19.72233 | 15645 ft | 358 kts | 165° |
| 2026-05-08 06:46 | 40.13713 | 19.73329 | 15162 ft | 355 kts | 165° |
| 2026-05-08 06:46 | 40.11399 | 19.74414 | 14685 ft | 352 kts | 165° |
| 2026-05-08 06:47 | 40.09098 | 19.75494 | 14211 ft | 349 kts | 165° |
| 2026-05-08 06:47 | 40.06850 | 19.76549 | 13746 ft | 346 kts | 165° |
| 2026-05-08 06:47 | 40.04590 | 19.77606 | 13209 ft | 344 kts | 165° |
| 2026-05-08 06:47 | 40.02343 | 19.78657 | 12686 ft | 342 kts | 165° |
| 2026-05-08 06:48 | 40.00072 | 19.79463 | 12176 ft | 334 kts | 178° |
| 2026-05-08 06:48 | 39.97800 | 19.79222 | 11674 ft | 325 kts | 198° |
| 2026-05-08 06:48 | 39.95806 | 19.77936 | 11153 ft | 318 kts | 218° |
| 2026-05-08 06:48 | 39.94372 | 19.75796 | 10740 ft | 312 kts | 239° |
| 2026-05-08 06:49 | 39.93706 | 19.73154 | 10504 ft | 305 kts | 258° |
| 2026-05-08 06:49 | 39.93542 | 19.70448 | 10323 ft | 294 kts | 264° |
| 2026-05-08 06:49 | 39.93485 | 19.67840 | 10166 ft | 282 kts | 264° |
| 2026-05-08 06:49 | 39.93452 | 19.65337 | 9895 ft | 273 kts | 265° |
| 2026-05-08 06:50 | 39.93676 | 19.62876 | 9469 ft | 277 kts | 280° |
| 2026-05-08 06:50 | 39.94282 | 19.60483 | 8991 ft | 279 kts | 284° |
| 2026-05-08 06:50 | 39.94957 | 19.58106 | 8495 ft | 280 kts | 284° |
| 2026-05-08 06:50 | 39.95646 | 19.55728 | 8019 ft | 280 kts | 284° |
| 2026-05-08 06:51 | 39.96076 | 19.53305 | 7556 ft | 270 kts | 265° |
| 2026-05-08 06:51 | 39.95811 | 19.50976 | 7105 ft | 259 kts | 244° |
| 2026-05-08 06:51 | 39.94934 | 19.48987 | 6670 ft | 250 kts | 224° |
| 2026-05-08 06:51 | 39.93622 | 19.47571 | 6260 ft | 243 kts | 206° |
| 2026-05-08 06:52 | 39.92057 | 19.46834 | 5831 ft | 238 kts | 188° |
| 2026-05-08 06:52 | 39.90422 | 19.46808 | 5416 ft | 235 kts | 172° |
| 2026-05-08 06:52 | 39.88872 | 19.47467 | 5025 ft | 236 kts | 155° |
| 2026-05-08 06:52 | 39.87547 | 19.48761 | 4658 ft | 243 kts | 139° |
| 2026-05-08 06:53 | 39.86599 | 19.50598 | 4366 ft | 249 kts | 120° |
| 2026-05-08 06:53 | 39.86171 | 19.52815 | 4107 ft | 259 kts | 102° |
| 2026-05-08 06:53 | 39.86161 | 19.55179 | 3920 ft | 260 kts | 96° |
| 2026-05-08 06:53 | 39.86203 | 19.57500 | 3834 ft | 259 kts | 97° |
| 2026-05-08 06:54 | 39.86227 | 19.59842 | 3774 ft | 258 kts | 97° |
| 2026-05-08 06:54 | 39.86242 | 19.62156 | 3654 ft | 255 kts | 98° |
| 2026-05-08 06:54 | 39.86250 | 19.64465 | 3657 ft | 256 kts | 98° |
| 2026-05-08 06:54 | 39.86250 | 19.66771 | 3682 ft | 254 kts | 97° |
| 2026-05-08 06:55 | 39.86247 | 19.69070 | 3697 ft | 253 kts | 97° |
| 2026-05-08 06:55 | 39.86242 | 19.71354 | 3701 ft | 252 kts | 97° |
| 2026-05-08 06:55 | 39.86238 | 19.73613 | 3694 ft | 242 kts | 97° |
| 2026-05-08 06:55 | 39.86235 | 19.75725 | 3687 ft | 228 kts | 98° |
| 2026-05-08 06:56 | 39.86134 | 19.77756 | 3688 ft | 221 kts | 110° |
| 2026-05-08 06:56 | 39.85591 | 19.79540 | 3454 ft | 208 kts | 125° |
| 2026-05-08 06:56 | 39.84855 | 19.81178 | 3209 ft | 213 kts | 122° |
| 2026-05-08 06:56 | 39.84137 | 19.82800 | 3172 ft | 203 kts | 122° |
| 2026-05-08 06:57 | 39.83441 | 19.84399 | 3179 ft | 203 kts | 121° |
| 2026-05-08 06:57 | 39.82765 | 19.85967 | 3177 ft | 190 kts | 122° |
| 2026-05-08 06:57 | 39.82129 | 19.87455 | 3252 ft | 187 kts | 124° |
| 2026-05-08 06:57 | 39.81499 | 19.88928 | 3250 ft | 187 kts | 124° |
| 2026-05-08 06:58 | 39.80800 | 19.90329 | 3220 ft | 178 kts | 136° |
| 2026-05-08 06:58 | 39.79794 | 19.91056 | 3189 ft | 164 kts | 165° |
| 2026-05-08 06:58 | 39.78667 | 19.91198 | 3194 ft | 158 kts | 173° |
| 2026-05-08 06:58 | 39.77652 | 19.91306 | 3170 ft | 139 kts | 171° |
| 2026-05-08 06:59 | 39.76691 | 19.91427 | 3177 ft | 139 kts | 172° |
| 2026-05-08 06:59 | 39.75712 | 19.91550 | 3187 ft | 143 kts | 172° |
| 2026-05-08 06:59 | 39.74718 | 19.91644 | 3197 ft | 144 kts | 178° |
| 2026-05-08 06:59 | 39.73723 | 19.91550 | 3118 ft | 141 kts | 181° |
| 2026-05-08 07:00 | 39.72747 | 19.91463 | 3243 ft | 140 kts | 179° |
| 2026-05-08 07:00 | 39.71792 | 19.91385 | 3050 ft | 140 kts | 179° |
| 2026-05-08 07:00 | 39.70809 | 19.91305 | 2809 ft | 143 kts | 179° |
| 2026-05-08 07:00 | 39.69802 | 19.91219 | 2549 ft | 147 kts | 178° |
| 2026-05-08 07:01 | 39.68775 | 19.91137 | 2362 ft | 148 kts | 177° |
| 2026-05-08 07:01 | 39.67741 | 19.91054 | 2135 ft | 150 kts | 177° |
| 2026-05-08 07:01 | 39.66719 | 19.90964 | 1869 ft | 144 kts | 177° |
| 2026-05-08 07:01 | 39.65770 | 19.90886 | 1592 ft | 134 kts | 175° |
| 2026-05-08 07:02 | 39.64838 | 19.90812 | 1340 ft | 135 kts | 175° |
| 2026-05-08 07:02 | 39.63907 | 19.90736 | 1111 ft | 134 kts | 175° |
| 2026-05-08 07:02 | 39.62962 | 19.90676 | 909 ft | 144 kts | 173° |
| 2026-05-08 07:02 | 39.61855 | 19.90770 | 1519 ft | 173 kts | 169° |
| 2026-05-08 07:03 | 39.60540 | 19.90972 | 2400 ft | 207 kts | 162° |
| 2026-05-08 07:03 | 39.59296 | 19.91805 | 3126 ft | 198 kts | 141° |
| 2026-05-08 07:03 | 39.58404 | 19.93192 | 3641 ft | 204 kts | 130° |
| 2026-05-08 07:03 | 39.57594 | 19.94767 | 3877 ft | 219 kts | 129° |
| 2026-05-08 07:04 | 39.56766 | 19.96468 | 3940 ft | 226 kts | 124° |
| 2026-05-08 07:04 | 39.56371 | 19.98462 | 3966 ft | 239 kts | 104° |
| 2026-05-08 07:04 | 39.55910 | 20.00456 | 3981 ft | 227 kts | 124° |
| 2026-05-08 07:04 | 39.55019 | 20.02102 | 3991 ft | 220 kts | 142° |
| 2026-05-08 07:05 | 39.53754 | 20.03138 | 3995 ft | 214 kts | 162° |
| 2026-05-08 07:05 | 39.52299 | 20.03428 | 3997 ft | 213 kts | 182° |
| 2026-05-08 07:05 | 39.50856 | 20.02975 | 3996 ft | 217 kts | 201° |
| 2026-05-08 07:05 | 39.49616 | 20.01812 | 3995 ft | 226 kts | 221° |
| 2026-05-08 07:06 | 39.48764 | 20.00050 | 4027 ft | 237 kts | 237° |
| 2026-05-08 07:06 | 39.48064 | 19.98134 | 4038 ft | 235 kts | 236° |
| 2026-05-08 07:06 | 39.47416 | 19.96180 | 4036 ft | 242 kts | 247° |
| 2026-05-08 07:06 | 39.47333 | 19.93949 | 4019 ft | 258 kts | 274° |
| 2026-05-08 07:07 | 39.47762 | 19.91682 | 4006 ft | 259 kts | 275° |
| 2026-05-08 07:07 | 39.48163 | 19.89413 | 4006 ft | 259 kts | 275° |